Time;durP1;ratioP1;P1;durP2;ratioP2;P2;SDS_P1;SDS_P2;PMS_P1;PMS_P2;Temp;Humidity;BMP_temperature;BMP_pressure;BME280_temperature;BME280_humidity;BME280_pressure;Samples;Min_cycle;Max_cycle;Signal;HPM_P1;HPM_P2
2022/05/08 00:01:00;;;;;;;31.80;24.00;;;;;;;38.23;44.43;100935.22;5061174;28;20416;-70
2022/05/08 00:03:26;;;;;;;30.60;19.97;;;;;;;38.22;44.28;100928.19;5070824;28;20449;-71
2022/05/08 00:05:53;;;;;;;29.63;20.03;;;;;;;38.18;44.67;100927.19;5070509;28;20457;-71
2022/05/08 00:08:19;;;;;;;22.33;20.50;;;;;;;38.20;44.11;100932.34;5070030;28;20468;-71
2022/05/08 00:10:45;;;;;;;27.17;20.10;;;;;;;38.16;44.37;100930.22;5070666;28;20441;-71
2022/05/08 00:13:11;;;;;;;26.93;19.07;;;;;;;38.20;44.28;100929.63;5070596;28;20437;-72
2022/05/08 00:15:38;;;;;;;29.83;20.33;;;;;;;38.26;44.33;100937.34;5070457;28;21006;-71
2022/05/08 00:18:04;;;;;;;21.50;15.40;;;;;;;38.25;44.15;100934.94;5070685;28;20448;-71
2022/05/08 00:20:30;;;;;;;25.93;19.13;;;;;;;38.29;44.01;100931.31;5070032;28;20394;-71
2022/05/08 00:22:56;;;;;;;25.97;19.00;;;;;;;38.30;44.21;100923.97;5068744;28;20410;-72
2022/05/08 00:25:22;;;;;;;25.40;20.87;;;;;;;38.21;43.80;100926.59;5069726;28;20540;-71
2022/05/08 00:27:48;;;;;;;23.67;18.80;;;;;;;38.09;44.21;100918.22;5068594;28;20421;-70
2022/05/08 00:30:14;;;;;;;42.30;20.27;;;;;;;38.07;44.34;100920.44;5068629;28;20509;-71
2022/05/08 00:32:40;;;;;;;22.73;18.17;;;;;;;38.17;44.00;100920.97;5068842;28;20973;-71
2022/05/08 00:35:10;;;;;;;23.10;18.20;;;;;;;38.20;44.32;100925.00;5070439;28;20427;-71
2022/05/08 00:37:37;;;;;;;27.13;17.23;;;;;;;38.29;43.82;100914.25;5070308;28;20421;-71
2022/05/08 00:40:04;;;;;;;24.90;18.90;;;;;;;38.30;43.48;100915.84;5070121;28;20441;-70
2022/05/08 00:42:30;;;;;;;26.77;19.37;;;;;;;38.21;44.11;100917.69;5070232;28;20983;-70
2022/05/08 00:44:56;;;;;;;25.70;19.67;;;;;;;38.15;43.99;100912.38;5071610;28;20402;-71
2022/05/08 00:47:22;;;;;;;26.03;17.57;;;;;;;38.16;44.20;100910.47;5070137;28;20421;-71
2022/05/08 00:49:49;;;;;;;24.97;17.13;;;;;;;38.26;43.83;100909.44;5070125;28;20505;-71
2022/05/08 00:52:17;;;;;;;31.90;20.57;;;;;;;38.41;43.55;100900.94;5070282;28;20909;-71
2022/05/08 00:54:44;;;;;;;29.03;19.80;;;;;;;38.52;43.22;100907.72;5070221;28;20900;-72
2022/05/08 00:57:10;;;;;;;25.97;18.17;;;;;;;38.48;43.20;100901.31;5070104;28;20929;-72
2022/05/08 00:59:36;;;;;;;24.50;18.67;;;;;;;38.41;43.32;100903.66;5070090;28;20425;-71
2022/05/08 01:02:03;;;;;;;28.63;16.90;;;;;;;38.26;43.60;100902.13;5070570;28;20425;-71
2022/05/08 01:04:30;;;;;;;29.57;18.57;;;;;;;38.18;43.76;100900.09;5073850;28;20520;-72
2022/05/08 01:06:57;;;;;;;25.87;19.37;;;;;;;38.15;44.08;100903.44;5073670;28;20468;-71
2022/05/08 01:09:23;;;;;;;29.03;18.30;;;;;;;38.09;44.27;100907.38;5073815;28;20873;-71
2022/05/08 01:11:49;;;;;;;22.20;18.23;;;;;;;38.05;44.24;100909.88;5073661;28;20500;-71
2022/05/08 01:14:17;;;;;;;24.90;18.03;;;;;;;38.07;44.07;100904.97;5073779;28;20402;-70
2022/05/08 01:16:44;;;;;;;31.53;21.17;;;;;;;38.18;43.66;100906.34;5074884;28;20461;-70
2022/05/08 01:19:10;;;;;;;25.00;15.57;;;;;;;38.26;43.74;100896.72;5073566;28;20470;-71
2022/05/08 01:21:41;;;;;;;22.30;15.90;;;;;;;38.20;43.94;100897.91;5074959;28;20412;-72
2022/05/08 01:24:13;;;;;;;19.37;15.87;;;;;;;38.18;44.02;100898.22;5073601;28;20428;-71
2022/05/08 01:26:39;;;;;;;21.23;15.77;;;;;;;38.14;44.14;100893.72;5073444;28;20460;-71
2022/05/08 01:29:05;;;;;;;20.73;15.67;;;;;;;38.13;43.72;100892.94;5074857;28;20398;-70
2022/05/08 01:31:32;;;;;;;19.67;15.97;;;;;;;38.05;44.02;100893.63;5073313;28;20409;-70
2022/05/08 01:33:58;;;;;;;22.23;14.07;;;;;;;38.09;43.85;100886.50;5074715;28;20750;-70
2022/05/08 01:36:24;;;;;;;18.93;15.87;;;;;;;38.13;43.71;100897.53;5073263;28;20793;-71
2022/05/08 01:38:51;;;;;;;22.80;14.50;;;;;;;38.25;43.39;100894.28;5073394;28;20410;-72
2022/05/08 01:41:17;;;;;;;27.13;14.97;;;;;;;38.13;43.45;100894.84;5073108;28;20472;-72
2022/05/08 01:43:43;;;;;;;17.03;13.87;;;;;;;38.20;43.47;100897.13;5073005;28;20453;-70
2022/05/08 01:46:10;;;;;;;24.57;15.70;;;;;;;38.21;43.50;100893.28;5073100;28;20518;-70
2022/05/08 01:48:37;;;;;;;19.77;13.23;;;;;;;38.23;43.34;100891.06;5069466;22;21010;-71
2022/05/08 01:51:04;;;;;;;22.37;17.00;;;;;;;38.07;43.62;100888.72;5049734;28;20478;-71
2022/05/08 01:53:33;;;;;;;19.37;13.90;;;;;;;37.94;44.19;100888.75;5049751;28;20415;-72
2022/05/08 01:56:02;;;;;;;22.73;12.20;;;;;;;38.09;43.91;100891.94;5032997;28;20420;-70
2022/05/08 01:58:29;;;;;;;22.47;14.00;;;;;;;38.22;43.77;100881.34;5049704;28;20423;-71
2022/05/08 02:00:57;;;;;;;19.13;13.13;;;;;;;38.28;43.45;100882.84;5049525;28;20506;-71
2022/05/08 02:03:24;;;;;;;18.90;14.10;;;;;;;38.24;43.59;100889.94;5049480;28;20443;-72
2022/05/08 02:05:51;;;;;;;17.73;11.40;;;;;;;38.25;43.35;100878.84;5032783;28;20455;-71
2022/05/08 02:08:17;;;;;;;22.37;14.63;;;;;;;38.33;43.41;100875.41;5049177;28;20447;-71
2022/05/08 02:10:44;;;;;;;20.30;14.30;;;;;;;38.33;43.47;100869.19;5049302;28;20914;-72
2022/05/08 02:13:11;;;;;;;18.50;14.13;;;;;;;38.27;43.34;100871.22;5049200;28;20522;-70
2022/05/08 02:15:38;;;;;;;20.00;14.47;;;;;;;38.24;43.66;100863.66;5049381;28;20435;-71
2022/05/08 02:18:07;;;;;;;16.97;13.33;;;;;;;38.20;43.72;100857.28;5048989;28;20440;-71
2022/05/08 02:20:34;;;;;;;19.40;13.30;;;;;;;38.11;43.74;100851.78;5049172;28;20419;-70
2022/05/08 02:23:00;;;;;;;20.07;14.40;;;;;;;37.98;44.02;100858.06;5049040;28;20427;-70
2022/05/08 02:25:26;;;;;;;21.90;14.37;;;;;;;37.96;44.52;100845.94;5048874;28;21020;-70
2022/05/08 02:27:53;;;;;;;19.03;13.03;;;;;;;37.70;45.22;100851.91;5049025;28;20926;-71
2022/05/08 02:30:21;;;;;;;24.83;13.80;;;;;;;37.58;44.95;100846.22;5048883;28;20456;-71
2022/05/08 02:32:51;;;;;;;19.67;14.70;;;;;;;37.49;45.76;100846.13;5049013;28;20423;-70
2022/05/08 02:35:20;;;;;;;20.53;14.97;;;;;;;37.56;45.79;100838.38;5048774;28;20475;-70
2022/05/08 02:37:50;;;;;;;19.67;15.83;;;;;;;37.58;45.20;100830.78;5033512;28;20891;-71
2022/05/08 02:40:19;;;;;;;18.67;15.40;;;;;;;37.50;45.32;100839.59;5058425;28;20442;-71
2022/05/08 02:42:46;;;;;;;22.13;16.90;;;;;;;37.64;45.50;100839.59;5052036;28;20430;-72
2022/05/08 02:45:12;;;;;;;19.77;15.23;;;;;;;37.76;44.98;100839.06;5053623;28;20413;-70
2022/05/08 02:47:40;;;;;;;22.67;17.63;;;;;;;37.89;44.74;100849.06;5051902;28;20955;-70
2022/05/08 02:50:09;;;;;;;21.47;16.40;;;;;;;37.88;44.86;100837.44;5051911;28;20810;-71
2022/05/08 02:52:36;;;;;;;22.27;17.27;;;;;;;37.97;44.71;100840.22;5053246;28;20436;-71
2022/05/08 02:58:32;;;;;;;22.37;16.50;;;;;;;37.96;44.63;100833.19;5051607;28;20442;-71
2022/05/08 03:00:35;;;;;;;31.50;19.23;;;;;;;37.80;44.85;100832.75;5053077;28;20488;-70
2022/05/08 03:03:04;;;;;;;25.40;17.57;;;;;;;37.91;44.81;100826.00;5052760;28;20492;-70
2022/05/08 03:05:30;;;;;;;23.10;18.00;;;;;;;38.06;44.33;100830.25;5052835;28;20533;-70
2022/05/08 03:07:56;;;;;;;24.40;18.03;;;;;;;38.00;44.48;100826.06;5052977;28;20428;-70
2022/05/08 03:10:22;;;;;;;33.10;19.03;;;;;;;38.01;44.40;100835.00;5052670;28;20444;-72
2022/05/08 03:12:48;;;;;;;24.40;17.70;;;;;;;38.03;44.59;100844.41;5068067;28;20427;-72
2022/05/08 03:15:14;;;;;;;34.70;19.80;;;;;;;38.10;44.55;100842.06;5051360;28;20426;-71
2022/05/08 03:17:40;;;;;;;25.10;18.30;;;;;;;38.16;44.19;100846.25;5068062;28;20425;-71
2022/05/08 03:20:07;;;;;;;23.67;18.03;;;;;;;38.18;44.13;100845.94;5051404;28;20433;-71
2022/05/08 03:22:33;;;;;;;27.37;18.13;;;;;;;38.19;44.13;100850.25;5067770;28;20465;-70
2022/05/08 03:24:59;;;;;;;32.93;17.50;;;;;;;38.23;43.99;100853.13;5050740;28;20880;-70
2022/05/08 03:27:25;;;;;;;24.70;19.30;;;;;;;38.24;44.14;100852.81;5051282;28;20953;-70
2022/05/08 03:29:51;;;;;;;25.40;20.60;;;;;;;38.16;44.17;100851.66;5051534;28;20427;-70
2022/05/08 03:32:17;;;;;;;21.47;17.67;;;;;;;38.03;44.07;100847.09;5067896;28;20415;-70
2022/05/08 03:34:43;;;;;;;28.73;18.83;;;;;;;38.08;44.18;100840.78;5050772;28;20434;-71
2022/05/08 03:37:09;;;;;;;23.93;17.43;;;;;;;38.17;44.25;100845.13;5051046;28;20821;-70
2022/05/08 03:39:35;;;;;;;24.33;18.10;;;;;;;38.22;44.00;100846.13;5067575;28;20453;-70
2022/05/08 03:42:01;;;;;;;28.20;19.73;;;;;;;38.21;44.01;100844.53;5050945;28;20429;-70
2022/05/08 03:44:27;;;;;;;22.90;16.40;;;;;;;38.28;43.96;100839.50;5050958;28;20422;-71
2022/05/08 03:46:53;;;;;;;33.00;17.73;;;;;;;38.26;43.74;100847.13;5067435;28;20468;-71
2022/05/08 03:49:19;;;;;;;23.93;16.10;;;;;;;38.23;43.83;100836.88;5067360;28;20482;-71
2022/05/08 03:51:45;;;;;;;21.37;15.93;;;;;;;38.16;44.02;100843.53;5052166;28;20421;-72
2022/05/08 03:54:12;;;;;;;21.97;17.13;;;;;;;38.25;44.09;100848.22;5067497;28;20426;-70
2022/05/08 03:56:38;;;;;;;25.57;18.43;;;;;;;38.29;43.83;100843.81;5050841;28;20415;-70
2022/05/08 03:59:04;;;;;;;30.43;19.50;;;;;;;38.33;43.94;100850.22;5050748;28;20434;-71
2022/05/08 04:01:30;;;;;;;24.07;19.40;;;;;;;38.33;43.89;100856.44;5067447;28;20419;-71
2022/05/08 04:03:56;;;;;;;30.03;18.80;;;;;;;38.25;44.25;100859.06;5067238;28;20832;-70
2022/05/08 04:06:22;;;;;;;27.33;18.60;;;;;;;38.25;43.66;100859.06;5067217;28;20921;-70
2022/05/08 04:08:51;;;;;;;22.63;18.90;;;;;;;38.24;44.13;100869.06;5052011;28;20887;-72
2022/05/08 04:11:17;;;;;;;21.90;19.40;;;;;;;38.31;44.13;100866.78;5050511;28;20888;-70
2022/05/08 04:13:43;;;;;;;23.73;19.20;;;;;;;38.31;43.92;100866.78;5067294;28;20985;-71
2022/05/08 04:16:18;;;;;;;25.93;21.37;;;;;;;38.30;43.94;100869.78;5067102;28;20515;-71
2022/05/08 04:18:46;;;;;;;28.10;22.50;;;;;;;38.28;43.91;100861.97;5051874;28;20406;-72
2022/05/08 04:21:12;;;;;;;28.47;21.10;;;;;;;38.30;43.97;100865.16;5050543;28;20427;-71
2022/05/08 04:26:23;;;;;;;19.53;18.47;;;;;;;38.15;44.11;100865.53;5051790;28;20468;-72
2022/05/08 04:28:49;;;;;;;33.30;21.83;;;;;;;38.04;44.73;100875.78;5051825;28;20403;-72
2022/05/08 04:31:15;;;;;;;25.87;21.83;;;;;;;37.97;44.69;100877.31;5051819;28;20394;-71
2022/05/08 04:33:41;;;;;;;30.30;25.30;;;;;;;37.90;44.66;100883.16;5066998;28;20927;-71
2022/05/08 04:36:08;;;;;;;41.03;34.97;;;;;;;37.88;44.93;100886.19;5050384;28;20504;-71
2022/05/08 04:38:34;;;;;;;49.67;33.20;;;;;;;37.86;44.98;100896.50;5054795;28;20407;-70
2022/05/08 04:41:00;;;;;;;42.07;32.50;;;;;;;37.90;44.92;100899.41;5054298;28;20452;-71
2022/05/08 04:43:26;;;;;;;40.53;27.70;;;;;;;37.71;45.35;100906.84;5055443;28;20442;-71
2022/05/08 04:45:52;;;;;;;38.37;29.27;;;;;;;37.67;45.65;100912.06;5054106;28;20545;-70
2022/05/08 04:48:18;;;;;;;30.80;27.37;;;;;;;37.70;45.58;100911.47;5054013;28;20478;-70
2022/05/08 04:50:44;;;;;;;33.77;25.90;;;;;;;37.84;44.90;100914.97;5070929;28;20925;-70
2022/05/08 04:53:10;;;;;;;29.83;23.90;;;;;;;37.78;45.21;100915.34;5070782;28;20921;-71
2022/05/08 04:55:36;;;;;;;44.27;24.83;;;;;;;37.79;45.02;100920.47;5070707;28;20455;-71
2022/05/08 04:58:02;;;;;;;31.87;24.00;;;;;;;37.88;45.10;100913.25;5053910;28;20431;-71
2022/05/08 05:00:29;;;;;;;29.87;24.07;;;;;;;38.12;44.39;100918.41;5053970;28;20483;-71
2022/05/08 05:02:55;;;;;;;30.93;23.80;;;;;;;38.19;44.13;100928.81;5054073;28;20418;-71
2022/05/08 05:05:21;;;;;;;28.60;22.57;;;;;;;38.31;44.04;100925.59;5053570;28;20885;-71
2022/05/08 05:07:47;;;;;;;23.60;21.00;;;;;;;38.40;43.79;100923.75;5054004;28;20428;-71
2022/05/08 05:10:13;;;;;;;28.30;21.20;;;;;;;38.42;43.55;100929.66;5070343;28;20446;-72
2022/05/08 05:12:40;;;;;;;30.90;20.73;;;;;;;38.30;44.30;100918.56;5053861;28;20444;-71
2022/05/08 05:15:07;;;;;;;26.70;21.73;;;;;;;38.27;44.14;100925.41;5053860;28;20430;-70
2022/05/08 05:17:34;;;;;;;36.90;21.10;;;;;;;38.25;44.08;100924.88;5053645;28;20422;-70
2022/05/08 05:20:00;;;;;;;20.40;19.23;;;;;;;38.27;44.03;100916.47;5053818;28;20484;-71
2022/05/08 05:22:26;;;;;;;25.60;18.43;;;;;;;38.24;43.88;100925.97;5070468;28;20436;-71
2022/05/08 05:24:56;;;;;;;24.40;17.50;;;;;;;38.16;43.74;100924.81;5070529;28;20437;-71
2022/05/08 05:27:22;;;;;;;27.10;19.80;;;;;;;37.89;44.26;100919.47;5053595;28;20484;-70
2022/05/08 05:29:48;;;;;;;33.80;20.00;;;;;;;37.83;44.94;100926.09;5053321;28;20549;-71
2022/05/08 05:32:14;;;;;;;27.50;22.60;;;;;;;37.75;44.80;100932.19;5053580;28;20414;-70
2022/05/08 05:34:41;;;;;;;24.77;21.60;;;;;;;37.81;44.89;100931.00;5069905;28;20442;-70
2022/05/08 05:37:07;;;;;;;30.47;21.70;;;;;;;37.95;44.48;100931.81;5053486;28;20418;-71
2022/05/08 05:39:33;;;;;;;31.50;22.20;;;;;;;38.01;44.43;100933.28;5053584;28;20475;-71
2022/05/08 05:42:00;;;;;;;36.50;22.20;;;;;;;38.07;44.11;100931.28;5054613;28;20885;-71
2022/05/08 05:44:26;;;;;;;36.27;24.80;;;;;;;38.14;44.14;100931.66;5054713;28;20399;-71
2022/05/08 05:49:40;;;;;;;38.70;24.23;;;;;;;38.13;44.21;100933.56;5053907;28;20472;-71
2022/05/08 05:52:07;;;;;;;23.30;21.60;;;;;;;38.14;44.06;100935.16;5069699;28;20501;-71
2022/05/08 05:54:35;;;;;;;28.50;22.70;;;;;;;38.20;44.16;100935.03;5053135;28;20410;-72
2022/05/08 05:57:02;;;;;;;26.17;22.00;;;;;;;38.24;44.11;100936.81;5053004;28;20411;-72
2022/05/08 05:59:29;;;;;;;29.57;23.80;;;;;;;38.24;43.99;100936.81;5053084;28;20417;-70
2022/05/08 06:01:55;;;;;;;29.27;24.00;;;;;;;38.27;44.14;100933.53;5054384;28;20486;-70
2022/05/08 06:04:21;;;;;;;32.10;24.80;;;;;;;38.28;43.90;100937.03;5069601;28;20928;-72
2022/05/08 06:06:47;;;;;;;29.57;24.00;;;;;;;38.27;43.85;100938.94;5052878;28;20461;-70
2022/05/08 06:09:13;;;;;;;27.40;22.40;;;;;;;38.29;44.00;100934.03;5069694;28;20445;-70
2022/05/08 06:11:39;;;;;;;34.70;25.60;;;;;;;38.34;43.98;100933.09;5054087;28;20800;-70
2022/05/08 06:14:05;;;;;;;30.67;27.87;;;;;;;38.31;44.07;100931.81;5054140;28;20890;-70
2022/05/08 06:16:31;;;;;;;33.23;26.77;;;;;;;38.23;44.26;100932.50;5052599;28;20430;-72
2022/05/08 06:19:00;;;;;;;41.23;28.40;;;;;;;38.25;43.88;100937.63;5052475;28;20929;-71
2022/05/08 06:21:27;;;;;;;37.50;27.90;;;;;;;38.26;44.26;100933.81;5052491;28;20800;-70
2022/05/08 06:23:54;;;;;;;30.47;25.93;;;;;;;38.21;44.05;100936.63;5053912;28;20857;-71
2022/05/08 06:26:20;;;;;;;41.60;25.13;;;;;;;38.23;44.26;100945.25;5036033;28;20853;-71
2022/05/08 06:28:47;;;;;;;33.10;25.50;;;;;;;38.29;44.25;100946.75;5052429;28;20425;-71
2022/05/08 06:31:15;;;;;;;26.60;21.60;;;;;;;38.30;44.07;100945.66;5069176;28;20430;-72
2022/05/08 06:33:45;;;;;;;31.57;26.43;;;;;;;38.30;44.16;100946.44;5052299;28;20434;-72
2022/05/08 06:36:12;;;;;;;35.40;26.87;;;;;;;38.35;44.27;100951.75;5068999;28;20510;-70
2022/05/08 06:38:38;;;;;;;37.57;33.37;;;;;;;38.35;44.09;100950.97;5053670;28;20402;-70
2022/05/08 06:41:04;;;;;;;46.53;34.67;;;;;;;38.44;43.77;100958.06;5052061;28;20499;-72
2022/05/08 06:43:30;;;;;;;53.47;37.67;;;;;;;38.49;44.09;100964.44;5052121;28;20517;-71
2022/05/08 06:45:56;;;;;;;43.30;34.07;;;;;;;38.50;43.78;100958.75;5051896;28;20463;-71
2022/05/08 06:48:22;;;;;;;49.00;35.00;;;;;;;38.51;43.91;100973.09;5051908;28;20475;-72
2022/05/08 06:50:49;;;;;;;36.50;30.77;;;;;;;38.54;43.73;100975.19;5068628;28;20422;-71
2022/05/08 06:53:15;;;;;;;50.20;27.70;;;;;;;38.56;43.83;100971.06;5068481;28;20454;-70
2022/05/08 06:55:43;;;;;;;30.03;26.13;;;;;;;38.62;43.91;100979.88;5051917;28;20909;-70
2022/05/08 06:58:09;;;;;;;29.30;22.10;;;;;;;38.61;43.87;100980.97;5051807;28;20458;-72
2022/05/08 07:03:19;;;;;;;25.67;17.60;;;;;;;38.63;44.04;100982.28;5053044;28;20394;-70
2022/05/08 07:05:47;;;;;;;32.30;19.00;;;;;;;38.71;43.59;100988.84;5068381;28;20473;-70
2022/05/08 07:08:14;;;;;;;22.50;16.90;;;;;;;38.65;43.78;100988.19;5051472;28;20500;-72
2022/05/08 07:10:41;;;;;;;21.00;17.23;;;;;;;38.61;43.71;100994.50;5051718;28;20433;-71
2022/05/08 07:13:08;;;;;;;28.70;19.73;;;;;;;38.61;43.93;100992.63;5051626;28;20441;-71
2022/05/08 07:15:34;;;;;;;19.70;15.57;;;;;;;38.65;43.88;100990.09;5050668;28;20932;-70
2022/05/08 07:18:00;;;;;;;31.93;17.80;;;;;;;38.77;43.55;100990.38;5050520;28;21006;-70
2022/05/08 07:20:26;;;;;;;31.87;16.10;;;;;;;38.74;43.69;100993.72;5050768;28;20434;-70
2022/05/08 07:22:52;;;;;;;24.03;14.70;;;;;;;38.75;43.64;100991.78;5050532;28;20438;-70
2022/05/08 07:25:18;;;;;;;23.47;10.93;;;;;;;38.80;43.33;100991.69;5050778;28;20422;-70
2022/05/08 07:27:45;;;;;;;17.63;10.10;;;;;;;38.85;42.95;100989.63;5050437;28;20446;-70
2022/05/08 07:30:11;;;;;;;19.17;10.70;;;;;;;38.86;42.94;100979.59;5045106;28;20463;-70
2022/05/08 07:32:37;;;;;;;16.10;9.07;;;;;;;38.90;42.82;100973.22;5050400;28;20856;-71
2022/05/08 07:37:49;;;;;;;33.60;15.30;;;;;;;38.95;43.00;100966.88;5050990;28;20488;-70
2022/05/08 07:40:15;;;;;;;20.90;14.37;;;;;;;38.93;43.25;100963.69;5050458;28;20446;-71
2022/05/08 07:42:41;;;;;;;18.57;12.30;;;;;;;38.79;43.69;100968.34;5049299;28;20447;-72
2022/05/08 07:45:07;;;;;;;20.80;12.90;;;;;;;38.86;43.75;100976.88;5049098;28;20422;-71
2022/05/08 07:47:34;;;;;;;23.93;12.40;;;;;;;38.91;43.43;100993.00;5065897;28;20497;-69
2022/05/08 07:50:00;;;;;;;24.33;11.80;;;;;;;38.92;43.57;101016.31;5048803;28;20478;-68
2022/05/08 07:52:27;;;;;;;18.53;10.57;;;;;;;38.93;43.36;101028.78;5049162;28;20484;-71
2022/05/08 07:54:53;;;;;;;24.80;10.90;;;;;;;38.78;43.85;101043.47;5065780;28;20788;-71
2022/05/08 07:57:19;;;;;;;16.33;8.63;;;;;;;38.83;43.17;101037.94;5058352;28;20517;-71
2022/05/08 07:59:47;;;;;;;12.23;8.53;;;;;;;38.89;42.93;101044.03;5049209;28;20793;-71
2022/05/08 08:02:13;;;;;;;14.30;8.07;;;;;;;38.98;42.88;101053.06;5044056;28;20785;-72
2022/05/08 08:04:41;;;;;;;15.93;7.33;;;;;;;38.96;42.62;101060.69;5049335;28;20495;-71
2022/05/08 08:07:07;;;;;;;18.50;9.40;;;;;;;38.99;42.54;101054.66;5049584;28;20462;-69
2022/05/08 08:09:33;;;;;;;14.20;7.17;;;;;;;39.02;42.50;101062.16;5050578;28;20415;-68
2022/05/08 08:11:59;;;;;;;17.30;8.40;;;;;;;39.06;42.55;101062.34;5047862;28;20832;-70
2022/05/08 08:14:25;;;;;;;12.17;7.33;;;;;;;39.14;42.36;101065.13;5047897;28;20833;-69
2022/05/08 08:16:52;;;;;;;12.13;7.13;;;;;;;39.20;42.26;101066.63;5050116;28;20407;-71
2022/05/08 08:19:18;;;;;;;12.40;7.13;;;;;;;39.23;41.89;101076.06;5034419;28;20461;-70
2022/05/08 08:21:44;;;;;;;7.80;5.67;;;;;;;39.29;41.78;101076.72;5050760;28;20415;-71
2022/05/08 08:24:10;;;;;;;13.10;6.90;;;;;;;39.29;41.76;101085.69;5047251;28;20440;-71
2022/05/08 08:26:39;;;;;;;10.00;6.03;;;;;;;39.25;42.12;101073.03;5045015;28;20465;-77
2022/05/08 08:29:05;;;;;;;9.23;5.57;;;;;;;39.28;41.90;101080.53;5047085;28;20542;-73
2022/05/08 08:31:31;;;;;;;11.20;5.17;;;;;;;39.29;41.90;101080.25;5031830;28;20434;-75
2022/05/08 08:33:58;;;;;;;11.00;5.70;;;;;;;39.29;41.67;101080.25;5050337;28;20426;-76
2022/05/08 08:36:24;;;;;;;12.83;5.77;;;;;;;39.32;41.70;101073.41;5045035;28;20920;-76
2022/05/08 08:38:51;;;;;;;8.40;4.40;;;;;;;39.35;41.66;101079.00;5049566;28;20443;-75
2022/05/08 08:41:26;;;;;;;10.07;7.27;;;;;;;39.38;41.72;101080.28;5048541;28;20441;-73
2022/05/08 08:49:33;;;;;;;10.13;7.33;;;;;;;39.46;41.88;101061.31;5033659;28;20453;-72
2022/05/08 08:51:59;;;;;;;10.40;6.70;;;;;;;39.45;41.88;101051.59;5063656;28;20937;-70
2022/05/08 08:54:25;;;;;;;9.70;6.13;;;;;;;39.50;41.85;101045.22;5046680;28;20435;-72
2022/05/08 08:56:51;;;;;;;13.10;6.53;;;;;;;39.51;42.18;101044.09;5030348;28;20438;-68
2022/05/08 08:59:17;;;;;;;8.40;5.50;;;;;;;39.54;41.81;101056.28;5030271;28;20419;-72
2022/05/08 09:01:45;;;;;;;13.47;6.50;;;;;;;39.40;41.81;101061.78;5030389;28;20514;-70
2022/05/08 09:04:12;;;;;;;11.63;5.57;;;;;;;39.43;41.70;101063.88;5031531;28;20988;-68
2022/05/08 09:06:43;;;;;;;9.40;5.60;;;;;;;39.50;41.75;101077.81;5030262;28;20494;-69
2022/05/08 09:09:31;;;;;;;13.20;5.77;;;;;;;39.52;41.61;101082.91;4999622;28;20498;-69
2022/05/08 09:11:58;;;;;;;11.33;4.90;;;;;;;39.49;41.38;101079.72;5046620;28;20419;-69
2022/05/08 09:14:35;;;;;;;6.77;3.50;;;;;;;39.54;40.78;101078.78;5029975;28;21060;-69
2022/05/08 09:17:05;;;;;;;10.53;3.07;;;;;;;39.64;40.47;101070.38;5046802;28;20414;-69
2022/05/08 09:19:38;;;;;;;9.33;3.33;;;;;;;39.60;40.60;101065.88;5031361;28;20411;-68
2022/05/08 09:22:11;;;;;;;9.03;3.00;;;;;;;39.64;40.54;101070.38;5046312;28;20777;-68
2022/05/08 09:24:52;;;;;;;8.80;3.93;;;;;;;39.65;40.84;101074.69;5032863;28;20428;-68
2022/05/08 09:27:18;;;;;;;8.90;3.57;;;;;;;39.74;40.35;101089.13;5050122;28;20459;-70
2022/05/08 09:29:45;;;;;;;6.47;3.30;;;;;;;39.82;40.64;101095.69;5033542;28;20462;-71
2022/05/08 09:32:35;;;;;;;6.07;2.70;;;;;;;39.86;40.13;101090.44;5017108;28;20494;-69
2022/05/08 09:35:02;;;;;;;8.47;3.33;;;;;;;39.84;40.29;101084.50;5050101;28;20404;-69
2022/05/08 09:37:28;;;;;;;5.40;3.13;;;;;;;39.91;39.89;101088.41;5042844;28;20426;-69
2022/05/08 09:40:16;;;;;;;8.80;4.20;;;;;;;39.86;40.02;101087.72;5055939;28;20469;-71
2022/05/08 09:42:42;;;;;;;5.53;2.97;;;;;;;39.80;39.87;101086.28;5034454;28;20392;-69
2022/05/08 09:45:10;;;;;;;7.50;3.37;;;;;;;39.82;39.93;101086.75;5049839;28;20467;-69
2022/05/08 09:47:57;;;;;;;10.40;3.77;;;;;;;39.85;40.00;101076.06;5049901;28;20463;-69
2022/05/08 09:50:23;;;;;;;7.70;3.57;;;;;;;39.90;39.89;101084.06;5033224;28;20475;-69
2022/05/08 09:52:49;;;;;;;9.33;3.37;;;;;;;39.90;39.75;101083.25;5053817;28;20492;-69
2022/05/08 09:55:17;;;;;;;5.60;3.47;;;;;;;39.93;40.28;101082.63;5052402;28;20430;-69
2022/05/08 09:57:44;;;;;;;8.03;3.80;;;;;;;39.93;40.18;101078.00;5049463;28;20448;-69
2022/05/08 10:00:11;;;;;;;6.60;3.07;;;;;;;39.89;40.28;101076.22;5033091;28;20454;-70
2022/05/08 10:02:38;;;;;;;6.60;3.23;;;;;;;39.84;40.15;101065.50;5032856;28;20482;-68
2022/05/08 10:05:05;;;;;;;12.80;4.63;;;;;;;39.86;40.21;101061.38;5035401;28;20948;-71
2022/05/08 10:07:32;;;;;;;9.73;4.60;;;;;;;39.90;40.02;101056.91;5047366;28;20477;-73
2022/05/08 10:15:33;;;;;;;15.70;4.23;;;;;;;39.98;40.38;101067.00;5054171;28;20518;-74
2022/05/08 10:18:23;;;;;;;8.50;3.60;;;;;;;40.02;40.42;101062.53;5052659;28;20430;-70
2022/05/08 10:20:58;;;;;;;12.50;3.83;;;;;;;39.95;40.45;101064.91;5042770;28;21891;-70
2022/05/08 10:23:38;;;;;;;6.00;3.80;;;;;;;39.96;40.58;101076.56;5064229;28;20438;-68
2022/05/08 10:26:16;;;;;;;6.27;2.90;;;;;;;39.94;40.27;101079.59;5052058;28;20454;-71
2022/05/08 10:29:04;;;;;;;8.33;3.77;;;;;;;40.05;40.09;101071.19;5048449;28;20488;-70
2022/05/08 10:31:42;;;;;;;11.40;4.10;;;;;;;40.06;40.21;101060.00;5052087;28;20468;-70
2022/05/08 10:34:10;;;;;;;16.00;4.03;;;;;;;40.08;40.33;101051.53;5052217;28;20936;-73
2022/05/08 10:36:36;;;;;;;10.00;4.57;;;;;;;40.08;40.18;101035.22;5041964;28;20926;-70
2022/05/08 10:39:41;;;;;;;7.37;3.07;;;;;;;40.06;40.24;101038.28;5032312;28;20481;-71
2022/05/08 10:42:33;;;;;;;7.60;3.50;;;;;;;40.08;40.17;101036.03;5050496;28;20509;-72
2022/05/08 10:45:00;;;;;;;11.00;4.00;;;;;;;40.02;40.06;101027.22;5057051;28;20438;-70
2022/05/08 10:47:47;;;;;;;6.63;3.90;;;;;;;40.08;39.93;101030.59;5051836;28;20470;-71
2022/05/08 10:50:14;;;;;;;9.90;4.80;;;;;;;40.09;39.70;101026.78;5051534;28;20481;-71
2022/05/08 10:52:44;;;;;;;8.67;4.10;;;;;;;40.14;39.90;101020.38;5049159;28;20439;-71
2022/05/08 10:55:15;;;;;;;7.80;4.53;;;;;;;40.05;40.12;101028.53;5041511;28;20443;-71
2022/05/08 10:57:44;;;;;;;10.40;3.47;;;;;;;40.12;40.24;101009.84;5050558;28;20418;-71
2022/05/08 11:00:18;;;;;;;15.20;4.53;;;;;;;40.16;39.95;101013.53;5050829;28;20430;-72
2022/05/08 11:02:57;;;;;;;11.47;3.60;;;;;;;40.19;39.86;101004.72;5050386;28;20446;-70
2022/05/08 11:05:30;;;;;;;7.43;3.97;;;;;;;40.16;39.56;100994.50;5050218;28;20530;-71
2022/05/08 11:08:10;;;;;;;8.77;4.80;;;;;;;40.10;40.23;100989.53;5047940;28;20471;-72
2022/05/08 11:10:41;;;;;;;11.97;5.37;;;;;;;39.98;40.02;100968.41;5047647;28;20449;-71
2022/05/08 11:13:11;;;;;;;9.70;4.13;;;;;;;40.09;39.95;100963.50;5041919;28;20505;-72
2022/05/08 11:15:39;;;;;;;6.13;3.90;;;;;;;40.09;39.27;100958.84;5047995;28;20451;-70
2022/05/08 11:18:15;;;;;;;14.83;6.67;;;;;;;40.13;39.81;100957.09;5051573;28;20473;-69
2022/05/08 11:20:48;;;;;;;8.73;4.27;;;;;;;40.09;39.64;100955.34;5051313;28;20430;-71
2022/05/08 11:23:16;;;;;;;8.37;4.03;;;;;;;40.11;38.97;100939.50;5051423;28;20430;-71
2022/05/08 11:25:51;;;;;;;6.60;4.37;;;;;;;40.11;39.59;100936.78;5051087;28;20466;-70
2022/05/08 11:28:20;;;;;;;7.03;4.40;;;;;;;40.12;39.02;100922.88;5049792;28;20445;-72
2022/05/08 11:30:47;;;;;;;8.77;4.40;;;;;;;40.14;39.68;100931.50;5049782;28;20455;-73
2022/05/08 11:36:04;;;;;;;10.57;4.63;;;;;;;39.98;38.73;100919.50;5072586;28;20443;-70
2022/05/08 11:38:51;;;;;;;15.83;8.20;;;;;;;40.10;39.25;100914.25;5070971;28;20449;-71
2022/05/08 11:41:28;;;;;;;42.80;24.17;;;;;;;40.05;39.94;100916.34;5070881;28;20453;-71
2022/05/08 11:43:59;;;;;;;15.43;7.40;;;;;;;39.85;39.76;100904.16;5049314;28;20415;-74